createdAt,value
2022-12-24T00:01:20.414Z,97409.66
2022-12-24T00:03:48.180Z,97414.00
2022-12-24T00:06:23.861Z,97418.53
2022-12-24T00:08:51.652Z,97407.19
2022-12-24T00:11:19.643Z,97399.75
2022-12-24T00:13:46.767Z,97406.16
2022-12-24T00:16:14.115Z,97416.50
2022-12-24T00:18:46.291Z,97397.50
2022-12-24T00:21:15.393Z,97394.84
2022-12-24T00:23:44.493Z,97395.09
2022-12-24T00:26:12.489Z,97393.44
2022-12-24T00:28:39.743Z,97382.56
2022-12-24T00:31:16.077Z,97389.75
2022-12-24T00:33:43.577Z,97386.44
2022-12-24T00:36:10.570Z,97373.72
2022-12-24T00:38:38.068Z,97361.34
2022-12-24T00:41:07.099Z,97355.00
2022-12-24T00:43:34.136Z,97358.84
2022-12-24T00:46:01.155Z,97348.63
2022-12-24T00:48:28.131Z,97339.97
2022-12-24T00:50:55.147Z,97343.28
2022-12-24T00:53:22.152Z,97339.38
2022-12-24T00:55:49.100Z,97341.88
2022-12-24T00:58:16.015Z,97340.84
2022-12-24T01:00:42.961Z,97333.47
2022-12-24T01:03:09.934Z,97342.50
2022-12-24T01:05:36.950Z,97327.47
2022-12-24T01:08:03.923Z,97330.16
2022-12-24T01:10:31.004Z,97335.50
2022-12-24T01:12:57.943Z,97346.84
2022-12-24T01:15:24.834Z,97346.66
2022-12-24T01:17:51.993Z,97341.69
2022-12-24T01:20:19.265Z,97344.44
2022-12-24T01:22:46.454Z,97340.75
2022-12-24T01:25:13.493Z,97333.91
2022-12-24T01:27:40.484Z,97333.56
2022-12-24T01:30:09.428Z,97334.34
2022-12-24T01:32:36.464Z,97312.69
2022-12-24T01:35:03.595Z,97352.44
2022-12-24T01:37:30.475Z,97356.97
2022-12-24T01:40:17.340Z,97351.44
2022-12-24T01:43:07.367Z,97355.97
2022-12-24T01:45:54.918Z,97355.97
2022-12-24T01:48:29.029Z,97361.09
2022-12-24T01:51:05.144Z,97342.38
2022-12-24T01:53:34.911Z,97338.44
2022-12-24T01:56:03.145Z,97342.16
2022-12-24T01:58:30.367Z,97344.88
2022-12-24T02:00:58.209Z,97330.66
2022-12-24T02:03:25.277Z,97327.16
2022-12-24T02:05:55.180Z,97322.19
2022-12-24T02:08:22.479Z,97323.88
2022-12-24T02:11:08.119Z,97318.13
2022-12-24T02:13:58.224Z,97319.81
2022-12-24T02:17:07.667Z,97327.91
2022-12-24T02:20:06.335Z,97323.66
2022-12-24T02:23:10.772Z,97327.59
2022-12-24T02:26:20.084Z,97325.34
2022-12-24T02:29:23.767Z,97338.56
2022-12-24T02:32:00.620Z,97341.00
2022-12-24T02:34:36.734Z,97331.16
2022-12-24T02:37:18.006Z,97329.13
2022-12-24T02:39:55.339Z,97326.44
2022-12-24T02:42:35.175Z,97323.53
2022-12-24T02:45:11.041Z,97325.66
2022-12-24T02:47:39.533Z,97311.25
2022-12-24T02:50:09.473Z,97311.25
2022-12-24T02:52:42.482Z,97324.63
2022-12-24T02:55:09.650Z,97311.66
2022-12-24T02:58:18.723Z,97321.69
2022-12-24T03:01:16.522Z,97332.66
2022-12-24T03:04:16.826Z,97332.28
2022-12-24T03:06:50.223Z,97331.91
2022-12-24T03:09:35.095Z,97322.19
2022-12-24T03:12:12.423Z,97330.88
2022-12-24T03:14:42.254Z,97340.16
2022-12-24T03:17:10.605Z,97347.19
2022-12-24T03:19:38.201Z,97362.41
2022-12-24T03:22:09.240Z,97350.81
2022-12-24T03:24:36.624Z,97364.25
2022-12-24T03:27:06.777Z,97366.50
2022-12-24T03:29:34.206Z,97374.13
2022-12-24T03:32:04.204Z,97375.81
2022-12-24T03:34:31.526Z,97378.91
2022-12-24T03:36:59.422Z,97371.50
2022-12-24T03:39:26.346Z,97373.81
2022-12-24T03:41:53.223Z,97370.91
2022-12-24T03:44:20.159Z,97364.13
2022-12-24T03:46:47.085Z,97382.09
2022-12-24T03:49:14.073Z,97376.91
2022-12-24T03:51:40.993Z,97375.69
2022-12-24T03:54:07.901Z,97368.50
2022-12-24T03:56:34.875Z,97375.69
2022-12-24T03:59:01.813Z,97364.72
2022-12-24T04:01:29.066Z,97387.66
2022-12-24T04:03:56.031Z,97372.81
2022-12-24T04:06:22.959Z,97374.50
2022-12-24T04:08:49.921Z,97374.28
2022-12-24T04:11:18.118Z,97371.81
2022-12-24T04:13:45.087Z,97371.38
2022-12-24T04:16:14.897Z,97378.38
2022-12-24T04:18:42.986Z,97370.34
2022-12-24T04:21:10.505Z,97374.50
2022-12-24T04:23:39.201Z,97373.47
2022-12-24T04:26:08.598Z,97367.06
2022-12-24T04:28:36.263Z,97362.56
2022-12-24T04:31:10.737Z,97365.44
2022-12-24T04:33:38.399Z,97366.25
2022-12-24T04:36:07.287Z,97364.41
2022-12-24T04:38:35.250Z,97376.78
2022-12-24T04:41:13.804Z,97371.59
2022-12-24T04:43:46.113Z,97357.59
2022-12-24T04:46:18.850Z,97366.25
2022-12-24T04:48:47.579Z,97373.00
2022-12-24T04:51:15.488Z,97378.00
2022-12-24T04:53:43.275Z,97370.72
2022-12-24T04:56:17.009Z,97380.69
2022-12-24T04:58:44.733Z,97364.13
2022-12-24T05:01:18.618Z,97379.63
2022-12-24T05:03:46.039Z,97376.16
2022-12-24T05:06:15.357Z,97376.94
2022-12-24T05:08:43.871Z,97375.09
2022-12-24T05:11:16.129Z,97372.66
2022-12-24T05:13:47.070Z,97371.81
2022-12-24T05:16:16.210Z,97375.69
2022-12-24T05:18:43.187Z,97375.44
2022-12-24T05:21:21.913Z,97377.31
2022-12-24T05:24:08.068Z,97390.88
2022-12-24T05:26:37.039Z,97392.72
2022-12-24T05:29:05.748Z,97390.47
2022-12-24T05:31:33.783Z,97392.72
2022-12-24T05:34:02.075Z,97398.91
2022-12-24T05:36:29.584Z,97395.41
2022-12-24T05:38:56.520Z,97391.28
2022-12-24T05:41:23.781Z,97395.41
2022-12-24T05:43:51.218Z,97395.22
2022-12-24T05:46:20.234Z,97403.69
2022-12-24T05:48:48.174Z,97404.97
2022-12-24T05:51:19.915Z,97406.41
2022-12-24T05:53:48.000Z,97398.19
2022-12-24T05:56:18.567Z,97395.50
2022-12-24T05:58:45.817Z,97404.38
2022-12-24T06:01:13.655Z,97407.47
2022-12-24T06:03:40.694Z,97407.81
2022-12-24T06:06:10.990Z,97400.44
2022-12-24T06:08:39.112Z,97410.31
2022-12-24T06:11:09.279Z,97411.97
2022-12-24T06:13:36.787Z,97420.63
2022-12-24T06:16:05.762Z,97413.19
2022-12-24T06:18:34.636Z,97417.78
2022-12-24T06:21:02.053Z,97424.78
2022-12-24T06:23:30.744Z,97437.97
2022-12-24T06:26:01.212Z,97443.53
2022-12-24T06:28:33.659Z,97442.53
2022-12-24T06:31:03.148Z,97450.34
2022-12-24T06:33:32.151Z,97446.22
2022-12-24T06:35:59.549Z,97447.88
2022-12-24T06:38:27.220Z,97437.16
2022-12-24T06:40:56.103Z,97449.16
2022-12-24T06:43:23.370Z,97448.75
2022-12-24T06:45:50.842Z,97446.72
2022-12-24T06:48:18.047Z,97451.69
2022-12-24T06:50:45.379Z,97449.56
2022-12-24T06:53:12.368Z,97417.34
2022-12-24T06:55:39.517Z,97415.84
2022-12-24T06:58:06.672Z,97449.63
2022-12-24T07:00:33.713Z,97437.59
2022-12-24T07:03:00.975Z,97439.25
2022-12-24T07:05:28.810Z,97439.03
2022-12-24T07:07:56.591Z,97465.75
2022-12-24T07:10:23.764Z,97448.34
2022-12-24T07:12:50.684Z,97473.97
2022-12-24T07:15:17.810Z,97473.78
2022-12-24T07:17:44.978Z,97444.81
2022-12-24T07:20:17.516Z,97487.88
2022-12-24T07:22:44.487Z,97485.00
2022-12-24T07:25:11.859Z,97480.59
2022-12-24T07:27:39.609Z,97493.47
2022-12-24T07:30:08.039Z,97473.59
2022-12-24T07:32:35.382Z,97475.06
2022-12-24T07:35:02.501Z,97495.75
2022-12-24T07:37:29.447Z,97479.44
2022-12-24T07:39:56.373Z,97505.06
2022-12-24T07:42:23.427Z,97495.13
2022-12-24T07:44:50.363Z,97480.00
2022-12-24T07:47:17.364Z,97489.53
2022-12-24T07:49:44.371Z,97508.25
2022-12-24T07:52:11.311Z,97522.06
2022-12-24T07:54:38.287Z,97488.97
2022-12-24T07:57:05.276Z,97524.16
2022-12-24T07:59:32.274Z,97476.56
2022-12-24T08:01:59.443Z,97507.63
2022-12-24T08:04:26.649Z,97496.44
2022-12-24T08:06:53.547Z,97534.56
2022-12-24T08:09:20.533Z,97484.88
2022-12-24T08:11:51.909Z,97521.97
2022-12-24T08:14:19.602Z,97520.91
2022-12-24T08:16:46.720Z,97539.56
2022-12-24T08:19:13.786Z,97482.09
2022-12-24T08:21:40.905Z,97522.66
2022-12-24T08:24:07.898Z,97494.31
2022-12-24T08:26:35.003Z,97541.31
2022-12-24T08:29:03.129Z,97510.25
2022-12-24T08:31:30.615Z,97537.63
2022-12-24T08:33:57.687Z,97526.41
2022-12-24T08:36:24.635Z,97525.16
2022-12-24T08:38:51.606Z,97558.97
2022-12-24T08:41:18.550Z,97568.84
2022-12-24T08:43:45.481Z,97571.97
2022-12-24T08:46:12.540Z,97576.13
2022-12-24T08:48:39.631Z,97563.63
2022-12-24T08:51:11.568Z,97577.56
2022-12-24T08:53:39.240Z,97575.72
2022-12-24T08:56:09.408Z,97582.75
2022-12-24T08:58:36.366Z,97579.84
2022-12-24T09:01:14.976Z,97584.41
2022-12-24T09:03:42.529Z,97579.84
2022-12-24T09:06:10.047Z,97590.22
2022-12-24T09:08:37.590Z,97589.81
2022-12-24T09:11:13.535Z,97591.72
2022-12-24T09:13:40.961Z,97587.38
2022-12-24T09:16:09.327Z,97606.38
2022-12-24T09:18:36.422Z,97597.94
2022-12-24T09:21:11.632Z,97603.97
2022-12-24T09:23:42.521Z,97604.59
2022-12-24T09:26:13.637Z,97604.63
2022-12-24T09:28:40.559Z,97598.88
2022-12-24T09:31:07.801Z,97612.75
2022-12-24T09:33:37.865Z,97603.66
2022-12-24T09:36:05.993Z,97606.59
2022-12-24T09:38:33.927Z,97600.00
2022-12-24T09:41:08.763Z,97614.94
2022-12-24T09:43:37.486Z,97617.84
2022-12-24T09:46:28.392Z,97620.75
2022-12-24T09:48:59.352Z,97623.22
2022-12-24T09:51:32.279Z,97622.00
2022-12-24T09:54:18.280Z,97633.59
2022-12-24T09:56:47.441Z,97634.84
2022-12-24T09:59:22.014Z,97639.84
2022-12-24T10:01:51.955Z,97629.91
2022-12-24T10:04:22.952Z,97626.19
2022-12-24T10:06:57.131Z,97638.41
2022-12-24T10:09:29.823Z,97653.50
2022-12-24T10:12:49.519Z,97650.19
2022-12-24T10:15:31.379Z,97667.13
2022-12-24T10:18:13.458Z,97669.63
2022-12-24T10:21:00.977Z,97669.63
2022-12-24T10:23:45.674Z,97675.66
2022-12-24T10:26:29.519Z,97693.22
2022-12-24T10:29:32.035Z,97685.78
2022-12-24T10:32:17.648Z,97688.88
2022-12-24T10:34:57.908Z,97681.69
2022-12-24T10:37:28.809Z,97690.16
2022-12-24T10:39:58.272Z,97694.69
2022-12-24T10:42:36.133Z,97686.66
2022-12-24T10:45:08.036Z,97700.13
2022-12-24T10:47:38.631Z,97702.38
2022-12-24T10:50:14.042Z,97701.34
2022-12-24T10:52:44.122Z,97705.94
2022-12-24T10:55:15.221Z,97695.16
2022-12-24T10:57:43.759Z,97703.84
2022-12-24T11:00:30.015Z,97713.19
2022-12-24T11:03:09.175Z,97701.13
2022-12-24T11:05:38.237Z,97715.78
2022-12-24T11:08:14.704Z,97722.22
2022-12-24T11:10:45.383Z,97729.09
2022-12-24T11:39:03.819Z,97754.09
2022-12-24T11:41:37.847Z,97773.97
2022-12-24T11:44:07.978Z,97781.38
2022-12-24T11:46:40.001Z,97779.72
2022-12-24T11:49:19.349Z,97791.31
2022-12-24T11:52:22.765Z,97809.47
2022-12-24T11:55:06.582Z,97803.72
2022-12-24T11:57:50.021Z,97801.06
2022-12-24T12:00:17.345Z,97810.19
2022-12-24T12:02:48.448Z,97814.97
2022-12-24T12:05:21.867Z,97815.13
2022-12-24T12:07:53.595Z,97826.75
2022-12-24T12:10:37.617Z,97817.00
2022-12-24T12:13:15.492Z,97822.59
2022-12-24T12:15:51.699Z,97829.19
2022-12-24T12:19:03.879Z,97833.97
2022-12-24T12:21:42.892Z,97845.97
2022-12-24T12:24:38.281Z,97851.53
2022-12-24T12:27:32.780Z,97852.16
2022-12-24T12:30:06.788Z,97857.09
2022-12-24T12:33:18.884Z,97873.41
2022-12-24T12:35:47.403Z,97875.72
2022-12-24T12:38:25.592Z,97874.84
2022-12-24T12:41:51.593Z,97877.09
2022-12-24T12:44:53.706Z,97885.19
2022-12-24T12:47:29.333Z,97883.31
2022-12-24T12:50:22.312Z,97878.97
2022-12-24T12:53:12.234Z,97895.94
2022-12-24T12:56:03.300Z,97905.91
2022-12-24T12:58:38.788Z,97905.84
2022-12-24T13:01:18.324Z,97913.50
2022-12-24T13:03:48.044Z,97911.47
2022-12-24T13:06:33.215Z,97919.94
2022-12-24T13:09:20.690Z,97918.50
2022-12-24T13:12:10.781Z,97926.94
2022-12-24T13:15:14.489Z,97938.59
2022-12-24T13:18:10.876Z,97912.84
2022-12-24T13:20:43.524Z,97950.19
2022-12-24T13:23:21.779Z,97918.63
2022-12-24T13:25:56.164Z,97933.75
2022-12-24T13:28:25.484Z,97947.44
2022-12-24T13:31:03.614Z,97954.69
2022-12-24T13:33:41.321Z,97928.47
2022-12-24T13:36:15.770Z,97959.56
2022-12-24T13:38:57.897Z,97983.53
2022-12-24T13:41:40.050Z,97989.66
2022-12-24T13:44:14.350Z,97991.53
2022-12-24T13:47:00.973Z,97997.75
2022-12-24T13:49:35.606Z,97996.28
2022-12-24T13:52:12.392Z,97996.66
2022-12-24T13:54:52.796Z,98005.72
2022-12-24T13:57:38.984Z,98013.88
2022-12-24T14:00:10.116Z,98019.06
2022-12-24T14:02:47.996Z,98020.47
2022-12-24T14:05:26.714Z,98025.25
2022-12-24T14:07:56.704Z,98027.88
2022-12-24T14:10:41.376Z,98029.91
2022-12-24T14:13:41.011Z,98033.44
2022-12-24T14:16:23.368Z,98047.09
2022-12-24T14:19:01.592Z,98046.03
2022-12-24T14:21:47.033Z,98042.47
2022-12-24T14:24:25.758Z,98065.91
2022-12-24T14:26:59.375Z,98052.34
2022-12-24T14:29:34.272Z,98081.38
2022-12-24T14:32:05.285Z,98079.34
2022-12-24T14:34:32.378Z,98047.25
2022-12-24T14:37:01.828Z,98010.38
2022-12-24T14:39:34.716Z,98078.41
2022-12-24T14:42:21.855Z,98069.22
2022-12-24T14:45:02.582Z,98101.59
2022-12-24T14:47:51.277Z,98109.66
2022-12-24T14:50:42.785Z,98119.00
2022-12-24T14:53:20.552Z,98085.44
2022-12-24T14:55:49.589Z,98115.69
2022-12-24T14:58:22.630Z,98120.84
2022-12-24T15:00:50.743Z,98096.06
2022-12-24T15:03:20.599Z,98106.44
2022-12-24T15:05:53.877Z,98058.91
2022-12-24T15:08:37.044Z,98123.22
2022-12-24T15:11:08.355Z,98110.63
2022-12-24T15:13:40.739Z,98142.56
2022-12-24T15:16:23.091Z,98141.38
2022-12-24T15:18:54.060Z,98119.16
2022-12-24T15:21:37.859Z,98150.72
2022-12-24T15:24:05.124Z,98144.88
2022-12-24T15:26:36.778Z,98123.78
2022-12-24T15:29:22.161Z,98152.78
2022-12-24T15:32:00.713Z,98155.47
2022-12-24T15:34:35.873Z,98134.44
2022-12-24T15:37:27.774Z,98160.72
2022-12-24T15:40:22.806Z,98168.13
2022-12-24T15:42:50.216Z,98164.63
2022-12-24T15:45:27.744Z,98175.81
2022-12-24T15:47:57.062Z,98180.94
2022-12-24T15:50:34.640Z,98175.38
2022-12-24T15:53:19.932Z,98188.81
2022-12-24T15:56:12.796Z,98188.59
2022-12-24T15:58:44.566Z,98191.94
2022-12-24T16:01:17.960Z,98192.97
2022-12-24T16:03:50.987Z,98197.50
2022-12-24T16:06:18.877Z,98198.91
2022-12-24T16:08:46.407Z,98198.25
2022-12-24T16:11:20.188Z,98201.97
2022-12-24T16:14:14.447Z,98201.13
2022-12-24T16:16:48.376Z,98203.81
2022-12-24T16:19:22.825Z,98205.84
2022-12-24T16:21:59.301Z,98206.22
2022-12-24T16:24:28.077Z,98209.31
2022-12-24T16:26:55.736Z,98215.69
2022-12-24T16:29:22.911Z,98214.75
2022-12-24T16:31:57.907Z,98215.78
2022-12-24T16:34:30.954Z,98216.53
2022-12-24T16:36:59.032Z,98223.91
2022-12-24T16:39:31.131Z,98191.88
2022-12-24T16:42:19.001Z,98230.59
2022-12-24T16:44:46.526Z,98235.31
2022-12-24T16:47:19.892Z,98233.03
2022-12-24T16:49:47.067Z,98236.06
2022-12-24T16:52:24.160Z,98239.13
2022-12-24T16:54:51.082Z,98247.56
2022-12-24T16:57:18.991Z,98249.66
2022-12-24T16:59:46.010Z,98253.47
2022-12-24T17:02:19.136Z,98259.69
2022-12-24T17:04:47.112Z,98252.97
2022-12-24T17:07:16.877Z,98266.69
2022-12-24T17:09:44.122Z,98269.59
2022-12-24T17:12:11.886Z,98264.00
2022-12-24T17:14:40.162Z,98263.00
2022-12-24T17:17:07.261Z,98264.31
2022-12-24T17:19:34.262Z,98267.66
2022-12-24T17:22:01.169Z,98274.19
2022-12-24T17:24:28.224Z,98270.50
2022-12-24T17:26:55.148Z,98276.72
2022-12-24T17:29:22.402Z,98279.78
2022-12-24T17:31:49.389Z,98274.59
2022-12-24T17:34:16.329Z,98284.47
2022-12-24T17:36:44.054Z,98281.63
2022-12-24T17:39:10.983Z,98275.41
2022-12-24T17:41:38.023Z,98292.00
2022-12-24T17:44:05.205Z,98286.63
2022-12-24T17:46:32.170Z,98293.22
2022-12-24T17:48:59.139Z,98306.44
2022-12-24T17:51:26.435Z,98297.44
2022-12-24T17:53:55.727Z,98301.97
2022-12-24T17:56:24.592Z,98311.34
2022-12-24T17:58:52.316Z,98312.56
2022-12-24T18:01:22.942Z,98312.91
2022-12-24T18:03:51.637Z,98313.66
2022-12-24T18:06:21.758Z,98313.16
2022-12-24T18:08:49.467Z,98321.28
2022-12-24T18:11:27.059Z,98318.28
2022-12-24T18:13:56.096Z,98322.34
2022-12-24T18:16:29.286Z,98333.47
2022-12-24T18:18:58.706Z,98322.97
2022-12-24T18:21:29.568Z,98339.22
2022-12-24T18:23:57.113Z,98334.59
2022-12-24T18:26:26.624Z,98336.91
2022-12-24T18:28:54.862Z,98343.28
2022-12-24T18:31:23.366Z,98337.28
2022-12-24T18:33:53.502Z,98349.50
2022-12-24T18:36:21.818Z,98333.59
2022-12-24T18:38:51.682Z,98334.28
2022-12-24T18:41:23.361Z,98337.44
2022-12-24T18:43:52.092Z,98349.50
2022-12-24T18:46:24.886Z,98356.69
2022-12-24T18:48:54.669Z,98357.38
2022-12-24T18:51:26.438Z,98359.91
2022-12-24T18:53:54.984Z,98365.06
2022-12-24T18:56:26.378Z,98369.25
2022-12-24T18:58:57.995Z,98375.25
2022-12-24T19:01:30.679Z,98377.09
2022-12-24T19:04:00.463Z,98375.09
2022-12-24T19:06:29.939Z,98392.88
2022-12-24T19:09:00.896Z,98380.47
2022-12-24T19:11:33.035Z,98393.16
2022-12-24T19:14:01.570Z,98397.22
2022-12-24T19:16:30.101Z,98403.72
2022-12-24T19:18:57.830Z,98407.25
2022-12-24T19:21:25.130Z,98401.50
2022-12-24T19:23:52.185Z,98408.72
2022-12-24T19:26:20.662Z,98417.81
2022-12-24T19:28:48.417Z,98417.66
2022-12-24T19:31:20.840Z,98426.72
2022-12-24T19:33:50.536Z,98418.03
2022-12-24T19:36:22.373Z,98415.53
2022-12-24T19:38:49.426Z,98419.09
2022-12-24T19:41:21.810Z,98422.16
2022-12-24T19:43:51.524Z,98426.47
2022-12-24T19:46:22.064Z,98439.72
2022-12-24T19:48:57.341Z,98452.66
2022-12-24T19:51:25.212Z,98439.56
2022-12-24T19:53:53.668Z,98450.31
2022-12-24T19:56:23.107Z,98454.03
2022-12-24T19:58:50.312Z,98447.63
2022-12-24T20:01:26.138Z,98455.88
2022-12-24T20:03:54.197Z,98461.25
2022-12-24T20:06:24.332Z,98462.78
2022-12-24T20:08:51.987Z,98462.97
2022-12-24T20:11:21.632Z,98466.00
2022-12-24T20:13:49.566Z,98472.03
2022-12-24T20:16:20.028Z,98467.50
2022-12-24T20:18:55.381Z,98465.50
2022-12-24T20:21:23.021Z,98454.59
2022-12-24T20:23:51.097Z,98458.50
2022-12-24T20:26:20.099Z,98464.84
2022-12-24T20:28:47.368Z,98463.69
2022-12-24T20:31:21.149Z,98467.44
2022-12-24T20:33:48.370Z,98478.66
2022-12-24T20:36:17.773Z,98476.84
2022-12-24T20:38:45.642Z,98476.34
2022-12-24T20:41:15.171Z,98480.03
2022-12-24T20:43:47.968Z,98474.81
2022-12-24T20:46:19.890Z,98489.56
2022-12-24T20:48:47.340Z,98494.25
2022-12-24T20:51:23.797Z,98490.53
2022-12-24T20:53:56.741Z,98482.34
2022-12-24T20:56:24.706Z,98482.69
2022-12-24T20:58:52.531Z,98483.38
2022-12-24T21:01:24.842Z,98490.41
2022-12-24T21:03:54.027Z,98491.06
2022-12-24T21:06:21.556Z,98484.06
2022-12-24T21:08:50.328Z,98490.06
2022-12-24T21:11:35.988Z,98485.06
2022-12-24T21:14:03.228Z,98488.75
2022-12-24T21:16:34.776Z,98508.69
2022-12-24T21:19:01.888Z,98503.00
2022-12-24T21:21:28.772Z,98505.47
2022-12-24T21:23:55.779Z,98502.66
2022-12-24T21:26:22.794Z,98506.69
2022-12-24T21:28:50.737Z,98512.69
2022-12-24T21:31:18.404Z,98519.72
2022-12-24T21:33:45.607Z,98515.56
2022-12-24T21:36:14.065Z,98525.94
2022-12-24T21:38:41.703Z,98522.25
2022-12-24T21:41:14.758Z,98528.94
2022-12-24T21:43:43.133Z,98542.66
2022-12-24T21:46:15.812Z,98527.28
2022-12-24T21:49:01.659Z,98533.63
2022-12-24T21:51:28.983Z,98537.31
2022-12-24T21:54:14.850Z,98533.78
2022-12-24T21:57:01.000Z,98542.34
2022-12-24T21:59:28.820Z,98533.63
2022-12-24T22:01:56.996Z,98536.16
2022-12-24T22:04:24.965Z,98542.16
2022-12-24T22:07:10.405Z,98540.00
2022-12-24T22:09:59.514Z,98544.53
2022-12-24T22:12:30.067Z,98550.53
2022-12-24T22:14:57.158Z,98544.84
2022-12-24T22:17:25.822Z,98540.50
2022-12-24T22:19:54.422Z,98549.38
2022-12-24T22:22:22.694Z,98535.31
2022-12-24T22:24:49.690Z,98554.72
2022-12-24T22:27:16.844Z,98546.00
2022-12-24T22:29:43.774Z,98551.38
2022-12-24T22:32:10.713Z,98550.38
2022-12-24T22:34:39.390Z,98555.72
2022-12-24T22:37:06.554Z,98554.72
2022-12-24T22:39:33.620Z,98558.41
2022-12-24T22:42:00.698Z,98556.72
2022-12-24T22:44:27.748Z,98528.47
2022-12-24T22:46:54.965Z,98560.09
2022-12-24T22:49:22.330Z,98554.56
2022-12-24T22:51:49.273Z,98554.38
2022-12-24T22:54:16.443Z,98559.44
2022-12-24T22:56:44.000Z,98555.72
2022-12-24T22:59:14.226Z,98555.56
2022-12-24T23:01:45.003Z,98564.94
2022-12-24T23:04:12.852Z,98571.16
2022-12-24T23:06:40.671Z,98571.63
2022-12-24T23:09:10.444Z,98570.16
2022-12-24T23:11:37.459Z,98579.88
2022-12-24T23:14:23.009Z,98574.16
2022-12-24T23:16:50.330Z,98579.53
2022-12-24T23:19:17.417Z,98575.84
2022-12-24T23:21:44.417Z,98579.88
2022-12-24T23:24:11.916Z,98577.50
2022-12-24T23:26:38.878Z,98580.00
2022-12-24T23:29:07.773Z,98578.19
2022-12-24T23:31:38.027Z,98578.34
2022-12-24T23:34:05.122Z,98576.34
2022-12-24T23:36:32.073Z,98585.22
2022-12-24T23:38:59.132Z,98581.53
2022-12-24T23:41:26.178Z,98587.56
2022-12-24T23:43:53.255Z,98597.44
2022-12-24T23:46:21.359Z,98590.25
2022-12-24T23:48:49.140Z,98594.75
2022-12-24T23:51:19.367Z,98582.34
2022-12-24T23:53:46.471Z,98589.41
2022-12-24T23:56:14.019Z,98579.19
2022-12-24T23:58:44.144Z,98587.91
